Coatesville, PA

2:20 AM EDT on September 23, 2017 (GMT -0400)
Chester County Carlson

Weather History for KMQS - October, 2011

Change the Weather History Date:

Thursday, October 20, 2011

  Actual Average (KILG) Record (KILG)
Temperature  
Mean Temperature 61 °F -  
Max Temperature 69 °F 63 °F 82 °F (1969)
Min Temperature 53 °F 43 °F 27 °F (1974)
Degree Days  
Heating Degree Days 4    
Growing Degree Days 11 (Base 50)    
Moisture  
Dew Point 51 °F    
Average Humidity 74    
Maximum Humidity 100    
Minimum Humidity 52    
Precipitation  
Precipitation 0.00 in - - ()
Sea Level Pressure  
Sea Level Pressure 29.49 in    
Wind  
Wind Speed 7 mph (SSW)    
Max Wind Speed 12 mph    
Max Gust Speed 22 mph    
Visibility 10 miles    
Events      
Averages and records for this station are not official NWS values.
T = Trace of Precipitation, MM = Missing Value Source: NWS Daily Summary

Daily Weather History Graph

Daily Weather History Graph

Search for Another Location

Airport or City:

Trip Planner

Search our weather history database for the weather conditions in past years. The results will help you decide how hot, cold, wet, or windy it might be!

Date:

Astronomy

Oct. 20, 2011 Rise Set
Actual Time 7:18 AM EDT 6:17 PM EDT
Civil Twilight 6:51 AM EDT 6:44 PM EDT
Nautical Twilight 6:19 AM EDT 7:15 PM EDT
Astronomical Twilight 5:48 AM EDT 7:47 PM EDT
Moon 12:01 AM EDT (10/20) 2:24 PM EDT (10/20)
Length of Visible Light 11h 53m
Length of Day
10h 58m
Last Quarter, 44% of the Moon is Illuminated
Oct 20
Last Quarter
Oct 26
New
Nov 2
First Quarter
Nov 10
Full
Nov 18
Last Quarter

Hourly Weather History & Observations

Time (EDT) Temp. Dew Point Humidity Pressure Visibility Wind Dir Wind Speed Gust Speed Precip Events Conditions
12:15 AM 69.8 °F 69.8 °F 100% 29.32 in 4.0 mi SSE 6.9 mph - N/A   Overcast
12:35 AM 69.8 °F 69.8 °F 100% 29.31 in 6.0 mi SSE 5.8 mph - N/A   Overcast
12:55 AM 69.8 °F 69.8 °F 100% 29.29 in 8.0 mi SSE 8.1 mph - N/A   Overcast
1:35 AM 69.8 °F 69.8 °F 100% 29.30 in 10.0 mi SSE 10.4 mph 18.4 mph N/A   Overcast
1:55 AM 69.8 °F 68.0 °F 94% 29.30 in 10.0 mi South 6.9 mph 16.1 mph N/A   Overcast
2:15 AM 69.8 °F 68.0 °F 94% 29.30 in 10.0 mi South 5.8 mph - N/A   Overcast
2:35 AM 69.8 °F 66.2 °F 88% 29.31 in 10.0 mi South 8.1 mph - N/A   Mostly Cloudy
2:55 AM 68.0 °F 66.2 °F 94% 29.32 in 10.0 mi South 6.9 mph 20.7 mph N/A   Mostly Cloudy
3:15 AM 68.0 °F 66.2 °F 94% 29.31 in 10.0 mi South 6.9 mph - N/A   Mostly Cloudy
3:35 AM 66.2 °F 64.4 °F 94% 29.31 in 10.0 mi South 9.2 mph - N/A   Mostly Cloudy
3:55 AM 66.2 °F 64.4 °F 94% 29.31 in 10.0 mi SW 6.9 mph - N/A   Mostly Cloudy
4:15 AM 66.2 °F 64.4 °F 94% 29.31 in 10.0 mi SSW 6.9 mph - N/A   Mostly Cloudy
4:35 AM 64.4 °F 62.6 °F 94% 29.31 in 10.0 mi SW 3.5 mph - N/A   Partly Cloudy
4:55 AM 64.4 °F 62.6 °F 94% 29.31 in 10.0 mi Calm Calm - N/A   Scattered Clouds
5:55 AM 62.6 °F 59.0 °F 88% 29.33 in 10.0 mi South 8.1 mph 18.4 mph N/A   Partly Cloudy
6:15 AM 62.6 °F 57.2 °F 82% 29.34 in 10.0 mi South 10.4 mph 19.6 mph N/A   Partly Cloudy
6:35 AM 60.8 °F 55.4 °F 82% 29.35 in 10.0 mi SSW 10.4 mph 18.4 mph N/A   Partly Cloudy
6:55 AM 60.8 °F 55.4 °F 82% 29.37 in 10.0 mi SW 8.1 mph - N/A   Scattered Clouds
7:15 AM 60.8 °F 55.4 °F 82% 29.38 in 10.0 mi SSW 6.9 mph - N/A   Overcast
7:35 AM 59.0 °F 53.6 °F 82% 29.39 in 10.0 mi SSW 8.1 mph 16.1 mph N/A   Overcast
7:55 AM 57.2 °F 53.6 °F 88% 29.41 in 10.0 mi SSW 9.2 mph 17.3 mph N/A   Overcast
8:35 AM 57.2 °F 53.6 °F 88% 29.43 in 10.0 mi SW 4.6 mph - N/A   Mostly Cloudy
8:55 AM 57.2 °F 51.8 °F 82% 29.44 in 10.0 mi SSW 10.4 mph 17.3 mph N/A   Overcast
9:15 AM 57.2 °F 51.8 °F 82% 29.46 in 10.0 mi SSW 9.2 mph 17.3 mph N/A   Mostly Cloudy
9:35 AM 57.2 °F 50.0 °F 77% 29.46 in 10.0 mi SSW 6.9 mph 16.1 mph N/A   Mostly Cloudy
9:55 AM 57.2 °F 50.0 °F 77% 29.47 in 10.0 mi SW 6.9 mph 18.4 mph N/A   Mostly Cloudy
10:15 AM 57.2 °F 48.2 °F 72% 29.48 in 10.0 mi SW 10.4 mph 21.9 mph N/A   Overcast
10:35 AM 57.2 °F 46.4 °F 67% 29.49 in 10.0 mi SW 9.2 mph 17.3 mph N/A   Overcast
10:55 AM 55.4 °F 48.2 °F 77% 29.49 in 10.0 mi WSW 6.9 mph - N/A   Overcast
11:15 AM 55.4 °F 46.4 °F 72% 29.50 in 10.0 mi WSW 6.9 mph - N/A   Overcast
11:35 AM 59.0 °F 46.4 °F 63% 29.50 in 10.0 mi SSW 10.4 mph 19.6 mph N/A   Overcast
11:55 AM 57.2 °F 46.4 °F 67% 29.51 in 10.0 mi SW 11.5 mph 17.3 mph N/A   Mostly Cloudy
12:15 PM 57.2 °F 44.6 °F 63% 29.51 in 10.0 mi SSW 10.4 mph 16.1 mph N/A   Mostly Cloudy
12:35 PM 57.2 °F 44.6 °F 63% 29.51 in 10.0 mi SSW 6.9 mph 18.4 mph N/A   Scattered Clouds
12:55 PM 60.8 °F 46.4 °F 59% 29.51 in 10.0 mi SSW 9.2 mph - N/A   Mostly Cloudy
1:15 PM 59.0 °F 42.8 °F 55% 29.51 in 10.0 mi SSW 9.2 mph 17.3 mph N/A   Mostly Cloudy
1:35 PM 60.8 °F 42.8 °F 52% 29.51 in 10.0 mi SSW 9.2 mph 18.4 mph N/A   Mostly Cloudy
1:55 PM 59.0 °F 42.8 °F 55% 29.52 in 10.0 mi SSW 11.5 mph 19.6 mph N/A   Scattered Clouds
2:35 PM 57.2 °F 42.8 °F 59% 29.53 in 10.0 mi SSW 10.4 mph 20.7 mph N/A   Mostly Cloudy
2:55 PM 57.2 °F 42.8 °F 59% 29.54 in 10.0 mi SW 6.9 mph 17.3 mph N/A   Mostly Cloudy
3:15 PM 57.2 °F 42.8 °F 59% 29.54 in 10.0 mi SSW 10.4 mph 21.9 mph N/A   Mostly Cloudy
3:35 PM 55.4 °F 42.8 °F 63% 29.56 in 10.0 mi SSW 8.1 mph 16.1 mph N/A   Mostly Cloudy
3:55 PM 55.4 °F 42.8 °F 63% 29.57 in 10.0 mi WSW 9.2 mph 19.6 mph N/A   Mostly Cloudy
4:15 PM 55.4 °F 42.8 °F 63% 29.58 in 10.0 mi SW 6.9 mph - N/A   Mostly Cloudy
4:35 PM 55.4 °F 42.8 °F 63% 29.58 in 10.0 mi SSW 5.8 mph - N/A   Partly Cloudy
5:15 PM 55.4 °F 42.8 °F 63% 29.60 in 10.0 mi SW 5.8 mph - N/A   Partly Cloudy
5:35 PM 55.4 °F 41.0 °F 58% 29.61 in 10.0 mi SSW 8.1 mph 17.3 mph N/A   Clear
5:55 PM 55.4 °F 41.0 °F 58% 29.62 in 10.0 mi SW 8.1 mph - N/A   Scattered Clouds
6:15 PM 55.4 °F 41.0 °F 58% 29.63 in 10.0 mi SW 5.8 mph - N/A   Mostly Cloudy
6:35 PM 55.4 °F 41.0 °F 58% 29.64 in 10.0 mi SSW 6.9 mph - N/A   Mostly Cloudy
6:55 PM 55.4 °F 41.0 °F 58% 29.66 in 10.0 mi SSW 4.6 mph - N/A   Mostly Cloudy
7:15 PM 53.6 °F 42.8 °F 67% 29.66 in 10.0 mi SW 5.8 mph - N/A   Partly Cloudy
7:35 PM 53.6 °F 42.8 °F 67% 29.67 in 10.0 mi SSW 8.1 mph - N/A   Mostly Cloudy
7:55 PM 53.6 °F 42.8 °F 67% 29.67 in 10.0 mi SW 6.9 mph - N/A   Mostly Cloudy
8:15 PM 53.6 °F 42.8 °F 67% 29.68 in 10.0 mi SSW 5.8 mph - N/A   Mostly Cloudy
8:55 PM 55.4 °F 42.8 °F 63% 29.70 in 10.0 mi SW 6.9 mph - N/A   Scattered Clouds
9:15 PM 53.6 °F 42.8 °F 67% 29.70 in 10.0 mi SW 6.9 mph - N/A   Mostly Cloudy
9:35 PM 53.6 °F 42.8 °F 67% 29.72 in 10.0 mi SW 5.8 mph - N/A   Scattered Clouds
9:55 PM 53.6 °F 42.8 °F 67% 29.73 in 10.0 mi WSW 5.8 mph - N/A   Clear
10:15 PM 53.6 °F 42.8 °F 67% 29.73 in 10.0 mi SW 5.8 mph - N/A   Scattered Clouds
10:35 PM 53.6 °F 42.8 °F 67% 29.74 in 10.0 mi SW 4.6 mph - N/A   Mostly Cloudy
10:55 PM 53.6 °F 42.8 °F 67% 29.74 in 10.0 mi WSW 5.8 mph - N/A   Partly Cloudy
11:15 PM 51.8 °F 42.8 °F 71% 29.75 in 10.0 mi West 4.6 mph - N/A   Clear
11:35 PM 51.8 °F 41.0 °F 67% 29.76 in 10.0 mi West 4.6 mph - N/A   Partly Cloudy
11:55 PM 51.8 °F 41.0 °F 67% 29.77 in 10.0 mi WSW 4.6 mph - N/A   Mostly Cloudy